Time;durP1;ratioP1;P1;durP2;ratioP2;P2;SDS_P1;SDS_P2;PMS_P1;PMS_P2;Temp;Humidity;BMP_temperature;BMP_pressure;BME280_temperature;BME280_humidity;BME280_pressure;Samples;Min_cycle;Max_cycle;Signal;HPM_P1;HPM_P2
2022/07/11 00:01:29;;;;;;;2.58;1.80;;;;;;;17.54;53.00;96241.94;5075843;28;20201;-82
2022/07/11 00:03:55;;;;;;;5.60;1.77;;;;;;;17.49;53.52;96237.38;5071477;28;20245;-82
2022/07/11 00:06:22;;;;;;;3.08;1.63;;;;;;;17.49;53.32;96226.94;5035695;28;20275;-82
2022/07/11 00:08:49;;;;;;;1.67;1.30;;;;;;;17.48;53.39;96230.56;5035959;28;20206;-82
2022/07/11 00:11:16;;;;;;;1.83;1.42;;;;;;;17.49;53.15;96221.75;5069682;28;20628;-82
2022/07/11 00:13:42;;;;;;;1.58;1.17;;;;;;;17.48;53.28;96214.13;5054516;28;20282;-82
2022/07/11 00:16:09;;;;;;;3.75;1.20;;;;;;;17.51;53.34;96216.31;5073471;28;20652;-82
2022/07/11 00:18:35;;;;;;;1.60;1.33;;;;;;;17.58;53.32;96214.50;5075343;28;20205;-82
2022/07/11 00:21:02;;;;;;;2.22;1.52;;;;;;;17.54;53.54;96214.09;5058203;28;20665;-82
2022/07/11 00:23:28;;;;;;;1.90;1.35;;;;;;;17.55;53.41;96218.31;5063962;28;20236;-82
2022/07/11 00:25:56;;;;;;;1.63;1.30;;;;;;;17.59;53.50;96209.09;5058457;28;20194;-82
2022/07/11 00:28:22;;;;;;;1.20;1.10;;;;;;;17.58;53.34;96212.69;5062360;28;20217;-82
2022/07/11 00:30:49;;;;;;;1.25;1.05;;;;;;;17.66;52.65;96214.31;5075163;28;20197;-82
2022/07/11 00:33:15;;;;;;;2.33;1.33;;;;;;;17.70;52.37;96214.72;5067212;28;20232;-82
2022/07/11 00:35:41;;;;;;;2.83;1.20;;;;;;;17.74;52.37;96203.66;5069009;28;20251;-82
2022/07/11 00:38:08;;;;;;;1.52;1.30;;;;;;;17.77;52.65;96208.44;5069461;28;20197;-82
2022/07/11 00:40:34;;;;;;;1.98;1.20;;;;;;;17.76;52.70;96208.66;5054622;28;20205;-82
2022/07/11 00:43:03;;;;;;;1.70;1.15;;;;;;;17.76;52.72;96209.47;5058861;28;20233;-82
2022/07/11 00:45:30;;;;;;;2.72;1.20;;;;;;;17.80;52.97;96202.03;5063092;28;20727;-82
2022/07/11 00:47:56;;;;;;;1.38;1.20;;;;;;;17.81;52.63;96201.03;5057781;28;20213;-82
2022/07/11 00:50:23;;;;;;;1.75;1.10;;;;;;;17.81;52.51;96199.22;5075159;28;20834;-82
2022/07/11 00:52:51;;;;;;;1.15;1.08;;;;;;;17.78;52.26;96194.44;5069258;28;20997;-82
2022/07/11 00:55:19;;;;;;;3.03;1.10;;;;;;;17.79;52.20;96190.81;5063887;28;20255;-82
2022/07/11 00:57:46;;;;;;;1.50;1.10;;;;;;;17.80;52.31;96192.41;5059809;28;20268;-82
2022/07/11 01:00:14;;;;;;;1.73;1.10;;;;;;;17.83;52.50;96192.00;5074041;28;20729;-82
2022/07/11 01:02:41;;;;;;;1.58;1.05;;;;;;;17.82;52.53;96200.03;5070224;28;20224;-82
2022/07/11 01:05:08;;;;;;;1.73;1.10;;;;;;;17.84;52.47;96190.19;5063748;28;20212;-82
2022/07/11 01:07:34;;;;;;;1.52;1.13;;;;;;;17.86;52.32;96190.78;5061608;28;20700;-82
2022/07/11 01:10:01;;;;;;;1.23;1.00;;;;;;;17.85;52.26;96190.00;5054649;28;20263;-82
2022/07/11 01:12:27;;;;;;;1.95;0.90;;;;;;;17.78;52.20;96185.81;5065024;28;20603;-82
2022/07/11 01:14:54;;;;;;;1.73;1.00;;;;;;;17.77;52.44;96184.22;5062311;28;20227;-82
2022/07/11 01:17:22;;;;;;;2.20;1.00;;;;;;;17.75;52.58;96188.81;5064264;28;20193;-82
2022/07/11 01:19:48;;;;;;;1.27;1.00;;;;;;;17.78;52.63;96178.78;5062654;28;20198;-82
2022/07/11 01:22:15;;;;;;;1.23;1.00;;;;;;;17.77;52.44;96187.63;5067281;28;20308;-82
2022/07/11 01:24:43;;;;;;;1.73;1.23;;;;;;;17.79;52.17;96185.59;5064834;28;20326;-82
2022/07/11 01:27:10;;;;;;;3.33;1.10;;;;;;;17.80;52.08;96187.19;5054340;28;20221;-82
2022/07/11 01:29:36;;;;;;;1.45;1.10;;;;;;;17.79;52.58;96190.00;5063274;28;20200;-82
2022/07/11 01:32:03;;;;;;;1.42;1.02;;;;;;;17.76;52.82;96191.22;5055804;28;20202;-82
2022/07/11 01:34:29;;;;;;;0.95;0.90;;;;;;;17.69;53.48;96187.06;5062258;28;20572;-82
2022/07/11 01:36:56;;;;;;;1.70;1.00;;;;;;;17.73;53.08;96193.44;5074091;28;20228;-82
2022/07/11 01:39:22;;;;;;;1.33;0.95;;;;;;;17.75;52.81;96181.00;5067962;28;20665;-82
2022/07/11 01:41:50;;;;;;;1.33;1.05;;;;;;;17.79;52.90;96179.59;5052823;28;20198;-82
2022/07/11 01:44:16;;;;;;;1.30;1.00;;;;;;;17.72;53.13;96179.59;5060756;28;20274;-82
2022/07/11 01:46:43;;;;;;;1.33;1.10;;;;;;;17.73;53.08;96177.81;5069329;28;20197;-82
2022/07/11 01:49:09;;;;;;;3.03;0.98;;;;;;;17.71;53.05;96177.22;5053786;28;20205;-82
2022/07/11 01:51:36;;;;;;;1.73;1.10;;;;;;;17.73;53.56;96181.22;5055561;28;20205;-82
2022/07/11 01:54:02;;;;;;;1.40;1.10;;;;;;;17.80;53.25;96183.78;5069350;28;20225;-82
2022/07/11 01:56:32;;;;;;;1.67;1.10;;;;;;;17.79;53.37;96174.38;5055011;28;20258;-82
2022/07/11 01:59:00;;;;;;;1.02;0.90;;;;;;;17.83;53.32;96171.16;5054131;28;20228;-82
2022/07/11 02:01:27;;;;;;;1.63;1.15;;;;;;;17.82;53.56;96172.16;5054348;28;20202;-82
2022/07/11 02:03:54;;;;;;;1.27;0.93;;;;;;;17.80;53.45;96168.16;5071018;28;20232;-82
2022/07/11 02:06:21;;;;;;;1.52;1.20;;;;;;;17.80;53.22;96165.56;5073949;28;20207;-82
2022/07/11 02:08:47;;;;;;;1.70;1.00;;;;;;;17.77;53.91;96163.38;5071879;28;20216;-82
2022/07/11 02:11:14;;;;;;;1.38;1.00;;;;;;;17.69;54.02;96163.63;5071546;28;20262;-82
2022/07/11 02:13:40;;;;;;;2.30;1.30;;;;;;;17.71;53.65;96165.00;5071272;28;20233;-82
2022/07/11 02:16:08;;;;;;;2.40;1.20;;;;;;;17.73;54.07;96160.38;5055698;28;20225;-82
2022/07/11 02:18:35;;;;;;;1.95;1.10;;;;;;;17.76;54.33;96159.97;5055042;28;20602;-82
2022/07/11 02:21:02;;;;;;;1.27;1.10;;;;;;;17.70;54.55;96162.63;5052950;28;20288;-82
2022/07/11 02:23:29;;;;;;;1.63;1.00;;;;;;;17.65;54.73;96159.81;5055506;28;20243;-82
2022/07/11 02:25:55;;;;;;;2.65;1.10;;;;;;;17.59;54.99;96162.19;5066814;28;20340;-82
2022/07/11 02:28:21;;;;;;;1.98;1.23;;;;;;;17.66;54.76;96161.41;5053979;28;20488;-82
2022/07/11 02:30:48;;;;;;;1.55;1.10;;;;;;;17.72;54.51;96155.38;5052651;28;20349;-82
2022/07/11 02:33:16;;;;;;;1.45;1.10;;;;;;;17.71;54.66;96162.38;5054659;28;20285;-82
2022/07/11 02:35:42;;;;;;;1.50;1.20;;;;;;;17.71;54.60;96156.38;5073801;28;20676;-82
2022/07/11 02:38:09;;;;;;;1.13;0.90;;;;;;;17.73;54.40;96156.97;5071338;28;20197;-82
2022/07/11 02:40:37;;;;;;;2.65;1.23;;;;;;;17.67;54.43;96157.81;5058258;28;20197;-82
2022/07/11 02:43:03;;;;;;;2.70;1.20;;;;;;;17.69;54.27;96161.00;5071077;28;20312;-82
2022/07/11 02:45:30;;;;;;;3.38;1.23;;;;;;;17.73;54.25;96160.38;5052828;28;20201;-82
2022/07/11 02:47:56;;;;;;;2.25;1.13;;;;;;;17.72;54.34;96163.97;5060247;28;20224;-82
2022/07/11 02:50:24;;;;;;;1.50;1.23;;;;;;;17.75;54.69;96162.78;5072087;28;20274;-82
2022/07/11 02:52:50;;;;;;;2.75;1.38;;;;;;;17.74;54.36;96161.16;5065601;28;20624;-82
2022/07/11 02:55:17;;;;;;;1.17;1.08;;;;;;;17.72;54.61;96165.78;5052295;28;20201;-82
2022/07/11 02:57:43;;;;;;;1.67;1.17;;;;;;;17.69;54.49;96161.00;5058235;28;20188;-82
2022/07/11 03:00:13;;;;;;;1.00;0.90;;;;;;;17.74;53.93;96159.38;5072056;28;20211;-82
2022/07/11 03:02:40;;;;;;;2.22;1.17;;;;;;;17.75;53.79;96154.97;5066906;28;20231;-82
2022/07/11 03:05:07;;;;;;;1.48;1.20;;;;;;;17.78;53.89;96152.75;5052591;28;20247;-82
2022/07/11 03:07:35;;;;;;;1.73;1.10;;;;;;;17.80;53.68;96158.56;5053578;28;20291;-82
2022/07/11 03:10:02;;;;;;;2.17;1.23;;;;;;;17.79;53.67;96156.94;5058771;28;20193;-82
2022/07/11 03:12:28;;;;;;;2.15;1.05;;;;;;;17.82;53.16;96153.94;5068883;28;20233;-82
2022/07/11 03:14:55;;;;;;;1.88;1.55;;;;;;;17.78;53.15;96155.34;5052377;28;20671;-82
2022/07/11 03:17:21;;;;;;;3.00;1.20;;;;;;;17.80;53.25;96155.16;5070145;28;20197;-82
2022/07/11 03:19:48;;;;;;;1.60;1.10;;;;;;;17.79;53.53;96156.94;5053553;28;20224;-82
2022/07/11 03:22:14;;;;;;;2.53;1.02;;;;;;;17.79;53.07;96156.94;5060964;28;20689;-82
2022/07/11 03:24:43;;;;;;;3.15;1.38;;;;;;;17.73;53.13;96152.56;5072436;28;20205;-82
2022/07/11 03:27:10;;;;;;;1.80;1.10;;;;;;;17.71;53.01;96153.75;5058864;28;20323;-82
2022/07/11 03:29:36;;;;;;;2.53;1.17;;;;;;;17.68;53.34;96156.81;5076462;28;20581;-82
2022/07/11 03:32:03;;;;;;;1.42;1.02;;;;;;;17.58;53.82;96154.59;5059291;28;20247;-82
2022/07/11 03:34:30;;;;;;;2.78;1.05;;;;;;;17.63;53.63;96156.59;5066089;28;20227;-82
2022/07/11 03:36:56;;;;;;;3.08;1.10;;;;;;;17.68;53.32;96151.59;5075961;28;20205;-82
2022/07/11 03:39:23;;;;;;;2.00;1.33;;;;;;;17.70;53.57;96154.81;5057112;28;20194;-82
2022/07/11 03:41:50;;;;;;;1.52;1.17;;;;;;;17.75;53.80;96154.97;5054946;28;20205;-82
2022/07/11 03:44:17;;;;;;;1.10;1.00;;;;;;;17.78;53.55;96155.34;5072415;28;20286;-82
2022/07/11 03:46:43;;;;;;;2.33;1.20;;;;;;;17.78;53.35;96157.97;5071158;28;20258;-82
2022/07/11 03:49:09;;;;;;;2.58;1.25;;;;;;;17.77;53.77;96158.16;5076175;28;20220;-82
2022/07/11 03:51:36;;;;;;;1.20;0.88;;;;;;;17.67;53.89;96152.59;5074946;28;20204;-82
2022/07/11 03:54:02;;;;;;;1.52;1.23;;;;;;;17.60;54.11;96155.19;5059551;28;20229;-82
2022/07/11 03:56:29;;;;;;;1.77;1.20;;;;;;;17.66;53.98;96151.81;5073421;28;20204;-82
2022/07/11 03:58:57;;;;;;;1.35;1.23;;;;;;;17.70;54.39;96152.19;5061958;28;20205;-82
2022/07/11 04:01:23;;;;;;;1.25;1.15;;;;;;;17.74;54.00;96146.34;5073782;28;20201;-82
2022/07/11 04:03:50;;;;;;;3.88;1.20;;;;;;;17.72;54.04;96148.34;5067981;28;20696;-82
2022/07/11 04:06:17;;;;;;;1.08;0.95;;;;;;;17.78;53.59;96151.94;5055779;28;20197;-82
2022/07/11 04:08:43;;;;;;;2.15;1.23;;;;;;;17.77;53.70;96158.97;5057223;28;20227;-82
2022/07/11 04:11:10;;;;;;;2.10;1.17;;;;;;;17.84;53.63;96156.34;5055000;28;20201;-82
2022/07/11 04:13:36;;;;;;;3.42;1.10;;;;;;;17.89;53.31;96151.31;5068907;28;20299;-82
2022/07/11 04:16:05;;;;;;;1.83;1.10;;;;;;;17.91;53.17;96157.09;5074205;28;20196;-82
2022/07/11 04:18:31;;;;;;;3.08;1.10;;;;;;;17.93;53.15;96157.69;5061645;28;20190;-82
2022/07/11 04:20:58;;;;;;;2.03;1.13;;;;;;;17.95;52.67;96155.66;5055309;28;20202;-82
2022/07/11 04:23:24;;;;;;;1.65;1.10;;;;;;;17.99;52.53;96162.06;5056261;28;20229;-82
2022/07/11 04:25:51;;;;;;;2.92;1.08;;;;;;;18.03;52.18;96162.44;5065908;28;20201;-82
2022/07/11 04:28:17;;;;;;;1.42;1.02;;;;;;;18.04;52.12;96158.84;5064135;28;20224;-82
2022/07/11 04:30:44;;;;;;;3.13;1.17;;;;;;;18.06;51.97;96162.84;5075882;28;20201;-82
2022/07/11 04:33:12;;;;;;;1.10;1.00;;;;;;;18.01;52.14;96160.06;5066748;28;20230;-82
2022/07/11 04:35:38;;;;;;;1.58;1.05;;;;;;;18.01;52.63;96156.66;5069805;28;20222;-82
2022/07/11 04:38:04;;;;;;;2.60;1.10;;;;;;;18.03;52.19;96154.63;5067607;28;20830;-82
2022/07/11 04:40:31;;;;;;;3.70;1.60;;;;;;;18.15;59.01;96158.97;5063165;28;20205;-81
2022/07/11 04:42:57;;;;;;;2.45;1.00;;;;;;;18.47;59.94;96157.16;5055249;28;20241;-83
2022/07/11 04:45:24;;;;;;;6.53;1.45;;;;;;;18.81;60.53;96168.19;5059488;28;20197;-82
2022/07/11 04:47:50;;;;;;;2.65;1.40;;;;;;;19.15;58.05;96161.66;5051094;28;20279;-81
2022/07/11 04:50:18;;;;;;;3.63;1.20;;;;;;;19.46;57.29;96156.28;5057701;28;20201;-82
2022/07/11 04:52:44;;;;;;;3.42;1.10;;;;;;;19.69;55.72;96157.47;5050744;28;20229;-80
2022/07/11 04:55:11;;;;;;;3.45;1.40;;;;;;;19.80;54.16;96156.75;5055983;28;20197;-81
2022/07/11 04:57:37;;;;;;;2.72;1.20;;;;;;;19.84;53.61;96160.50;5054019;28;20209;-81
2022/07/11 05:00:05;;;;;;;4.82;1.20;;;;;;;19.93;53.66;96159.19;5053456;28;20216;-82
2022/07/11 05:02:33;;;;;;;2.33;1.15;;;;;;;19.97;51.83;96163.75;5054463;28;20229;-84
2022/07/11 05:04:59;;;;;;;2.15;1.20;;;;;;;19.84;50.72;96160.50;5054963;28;20735;-84
2022/07/11 05:07:27;;;;;;;2.90;1.20;;;;;;;19.62;51.19;96162.78;5055496;28;20231;-84
2022/07/11 05:09:54;;;;;;;3.60;1.30;;;;;;;19.39;51.22;96170.44;5055465;28;20202;-84
2022/07/11 05:12:21;;;;;;;2.25;1.13;;;;;;;19.21;52.17;96169.44;5053497;28;20292;-84
2022/07/11 05:14:48;;;;;;;3.60;1.70;;;;;;;19.08;51.44;96179.97;5053781;28;20269;-84
2022/07/11 05:17:14;;;;;;;3.08;1.38;;;;;;;19.01;52.27;96179.25;5055317;28;20205;-84
2022/07/11 05:19:41;;;;;;;2.35;1.38;;;;;;;18.98;52.57;96179.66;5055264;28;20197;-84
2022/07/11 05:22:07;;;;;;;3.22;1.67;;;;;;;18.93;53.09;96189.94;5054066;28;20267;-84
2022/07/11 05:24:35;;;;;;;4.93;1.50;;;;;;;18.95;53.22;96180.09;5053739;28;20213;-84
2022/07/11 05:27:01;;;;;;;3.35;1.40;;;;;;;18.93;53.29;96187.34;5052139;28;20292;-84
2022/07/11 05:29:28;;;;;;;5.28;1.50;;;;;;;18.90;53.31;96180.72;5055263;28;20221;-83
2022/07/11 05:31:54;;;;;;;3.05;1.65;;;;;;;18.89;52.86;96186.16;5054861;28;20293;-84
2022/07/11 05:34:20;;;;;;;3.17;1.70;;;;;;;18.85;53.58;96190.22;5053546;28;20229;-84
2022/07/11 05:36:47;;;;;;;7.50;2.00;;;;;;;18.88;53.28;96189.78;5055114;28;20205;-83
2022/07/11 05:39:15;;;;;;;5.22;1.35;;;;;;;18.89;52.82;96188.78;5054771;28;20280;-84
2022/07/11 05:41:42;;;;;;;3.38;1.40;;;;;;;18.87;53.23;96186.38;5053871;28;20201;-83
2022/07/11 05:44:11;;;;;;;1.85;1.30;;;;;;;18.82;51.97;96188.84;5054692;28;20473;-83
2022/07/11 05:46:39;;;;;;;14.32;10.70;;;;;;;18.79;52.43;96193.69;5055416;28;20267;-84
2022/07/11 05:49:07;;;;;;;2.72;1.92;;;;;;;18.79;52.27;96193.69;5052258;28;23111;-84
2022/07/11 05:51:33;;;;;;;1.30;1.20;;;;;;;18.72;51.88;96192.91;5054254;28;20297;-84
2022/07/11 05:53:59;;;;;;;3.20;1.27;;;;;;;18.69;52.18;96194.16;5053689;28;20241;-83
2022/07/11 05:56:26;;;;;;;5.15;4.32;;;;;;;18.74;52.78;96193.50;5054867;28;20232;-83
2022/07/11 05:58:54;;;;;;;2.75;2.38;;;;;;;18.81;52.37;96191.66;5054921;28;20288;-84
2022/07/11 06:01:21;;;;;;;2.47;1.50;;;;;;;18.89;52.25;96194.00;5054923;28;20288;-84
2022/07/11 06:03:48;;;;;;;1.50;1.40;;;;;;;18.98;52.21;96192.72;5050599;28;20282;-84
2022/07/11 06:06:14;;;;;;;3.47;1.30;;;;;;;19.02;50.95;96191.28;5034825;28;20205;-83
2022/07/11 06:08:43;;;;;;;2.45;1.30;;;;;;;19.05;50.46;96190.84;5035397;28;20264;-83
2022/07/11 06:11:10;;;;;;;2.10;1.20;;;;;;;19.16;51.52;96189.34;5034271;28;20224;-84
2022/07/11 06:13:37;;;;;;;2.22;1.23;;;;;;;19.23;50.55;96187.50;5034895;28;20254;-83
2022/07/11 06:16:06;;;;;;;2.55;1.20;;;;;;;19.20;50.67;96180.09;5034750;28;20201;-84
2022/07/11 06:18:33;;;;;;;1.88;1.27;;;;;;;19.26;50.17;96187.03;5035451;28;20248;-83
2022/07/11 06:20:59;;;;;;;1.20;1.00;;;;;;;19.39;50.36;96186.91;5035322;28;20299;-83
2022/07/11 06:23:26;;;;;;;1.48;1.17;;;;;;;19.43;50.01;96180.25;5034860;28;20593;-84
2022/07/11 06:25:52;;;;;;;2.30;1.08;;;;;;;19.44;49.72;96179.22;5041415;28;20197;-83
2022/07/11 06:28:18;;;;;;;2.35;1.20;;;;;;;19.37;48.82;96183.72;5066667;28;20220;-83
2022/07/11 06:30:45;;;;;;;3.08;1.15;;;;;;;19.32;48.60;96184.38;5074909;28;20207;-84
2022/07/11 06:33:13;;;;;;;3.92;1.70;;;;;;;19.36;49.19;96174.28;5073285;28;20267;-83
2022/07/11 06:35:39;;;;;;;3.67;1.70;;;;;;;19.41;49.02;96176.25;5074358;28;20201;-83
2022/07/11 06:38:05;;;;;;;2.00;1.23;;;;;;;19.39;49.21;96180.91;5074788;28;20250;-84
2022/07/11 06:40:32;;;;;;;3.55;1.50;;;;;;;19.43;48.76;96175.03;5074895;28;20230;-84
2022/07/11 06:42:58;;;;;;;2.85;1.80;;;;;;;19.51;49.74;96179.97;5073588;28;20233;-84
2022/07/11 06:45:25;;;;;;;3.00;1.60;;;;;;;19.57;49.70;96183.53;5073742;28;20216;-84
2022/07/11 06:47:51;;;;;;;2.03;1.30;;;;;;;19.56;48.96;96179.34;5074876;28;20198;-83
2022/07/11 06:50:20;;;;;;;5.00;1.30;;;;;;;19.41;48.84;96182.28;5073833;28;20711;-83
2022/07/11 06:52:47;;;;;;;2.05;1.10;;;;;;;19.49;49.31;96175.94;5059670;28;20229;-83
2022/07/11 06:55:13;;;;;;;1.90;1.20;;;;;;;19.60;49.65;96175.28;5054440;28;20258;-83
2022/07/11 06:57:40;;;;;;;2.17;1.27;;;;;;;19.72;49.49;96178.75;5053389;28;20715;-83
2022/07/11 07:00:07;;;;;;;2.70;1.23;;;;;;;19.79;49.26;96176.06;5055851;28;20276;-83
2022/07/11 07:02:34;;;;;;;2.25;1.20;;;;;;;19.86;49.48;96174.16;5057690;28;20593;-83
2022/07/11 07:05:01;;;;;;;2.53;1.08;;;;;;;19.89;49.04;96177.13;5058375;28;20209;-83
2022/07/11 07:07:29;;;;;;;1.90;1.38;;;;;;;19.96;48.54;96179.66;5057742;28;20493;-83
2022/07/11 07:09:55;;;;;;;2.47;1.15;;;;;;;19.96;48.12;96174.44;5057212;28;20225;-83
2022/07/11 07:12:22;;;;;;;1.63;1.00;;;;;;;20.00;47.91;96178.22;5056414;28;20204;-83
2022/07/11 07:14:49;;;;;;;2.05;1.17;;;;;;;20.12;48.80;96181.66;5057890;28;20209;-83
2022/07/11 07:17:16;;;;;;;1.48;1.10;;;;;;;20.16;48.36;96174.97;5057689;28;20209;-83
2022/07/11 07:19:43;;;;;;;3.15;1.23;;;;;;;20.29;48.14;96180.03;5057297;28;20201;-83
2022/07/11 07:22:10;;;;;;;1.77;1.15;;;;;;;20.38;47.58;96180.53;5056838;28;20205;-83
2022/07/11 07:24:37;;;;;;;1.27;1.00;;;;;;;20.46;48.09;96182.03;5057270;28;20232;-83
2022/07/11 07:27:05;;;;;;;4.47;3.22;;;;;;;20.52;48.61;96181.16;5040502;28;20690;-83
2022/07/11 07:29:32;;;;;;;5.70;4.75;;;;;;;20.60;47.86;96181.59;5037308;28;20256;-83
2022/07/11 07:31:59;;;;;;;9.70;7.22;;;;;;;20.64;48.27;96185.38;5036365;28;20233;-83
2022/07/11 07:34:25;;;;;;;3.00;2.70;;;;;;;20.72;48.52;96186.06;5036493;28;20261;-83
2022/07/11 07:36:52;;;;;;;6.80;6.10;;;;;;;20.72;48.39;96192.09;5037430;28;20267;-83
2022/07/11 07:39:18;;;;;;;5.65;3.20;;;;;;;20.74;48.12;96189.28;5036288;28;20206;-83
2022/07/11 07:41:46;;;;;;;3.30;2.72;;;;;;;20.75;48.22;96180.41;5036613;28;20206;-83
2022/07/11 07:44:12;;;;;;;1.55;1.40;;;;;;;20.66;46.99;96185.94;5036743;28;20251;-83
2022/07/11 07:46:39;;;;;;;1.73;1.20;;;;;;;20.64;47.13;96185.38;5037274;28;20205;-83
2022/07/11 07:49:05;;;;;;;1.67;1.20;;;;;;;20.71;48.17;96181.88;5037104;28;20222;-83
2022/07/11 07:51:32;;;;;;;3.55;1.10;;;;;;;20.75;48.66;96178.59;5038995;28;20232;-83
2022/07/11 07:53:58;;;;;;;1.75;1.40;;;;;;;20.81;49.32;96179.47;5055021;28;20240;-83
2022/07/11 07:56:25;;;;;;;1.77;1.20;;;;;;;20.85;48.16;96181.41;5056172;28;20593;-83
2022/07/11 07:58:53;;;;;;;2.30;1.75;;;;;;;20.91;48.51;96180.53;5056215;28;20665;-83
2022/07/11 08:01:40;;;;;;;5.28;1.40;;;;;;;21.05;49.03;96181.09;5055726;28;20202;-83
2022/07/11 08:04:08;;;;;;;1.60;1.25;;;;;;;21.13;49.14;96174.72;5055990;28;20243;-83
2022/07/11 08:06:35;;;;;;;2.28;1.13;;;;;;;21.07;48.54;96179.06;5056504;28;20259;-83
2022/07/11 08:09:03;;;;;;;8.82;6.82;;;;;;;21.12;49.00;96173.94;5056525;28;20217;-84
2022/07/11 08:11:30;;;;;;;5.13;3.38;;;;;;;21.19;48.20;96181.66;5055836;28;20205;-83
2022/07/11 08:13:58;;;;;;;3.20;2.70;;;;;;;21.26;47.16;96170.09;5056259;28;20229;-83
2022/07/11 08:16:25;;;;;;;4.30;3.00;;;;;;;21.48;47.46;96172.13;5055963;28;20714;-83
2022/07/11 08:18:55;;;;;;;6.00;4.57;;;;;;;21.43;47.49;96172.00;5056364;28;20738;-84
2022/07/11 08:21:22;;;;;;;1.55;1.30;;;;;;;21.55;46.47;96168.31;5056437;28;20186;-83
2022/07/11 08:23:48;;;;;;;3.70;2.15;;;;;;;21.88;47.58;96180.00;5054728;28;20233;-84
2022/07/11 08:26:15;;;;;;;4.88;1.65;;;;;;;22.09;46.19;96168.09;5055934;28;20758;-84
2022/07/11 08:28:41;;;;;;;5.60;4.47;;;;;;;22.22;44.60;96173.06;5055634;28;20259;-84
2022/07/11 08:31:09;;;;;;;4.95;3.78;;;;;;;22.23;44.43;96179.91;5054966;28;20255;-83
2022/07/11 08:33:36;;;;;;;2.67;1.20;;;;;;;22.19;44.80;96176.16;5068677;28;20235;-83
2022/07/11 08:36:02;;;;;;;1.67;1.17;;;;;;;22.15;44.75;96183.69;5063306;28;20202;-83
2022/07/11 08:38:29;;;;;;;1.75;1.05;;;;;;;21.96;44.77;96175.19;5055802;28;20232;-83
2022/07/11 08:40:55;;;;;;;1.90;1.20;;;;;;;21.94;45.35;96177.22;5054661;28;20202;-84
2022/07/11 08:43:27;;;;;;;1.88;1.08;;;;;;;21.98;45.39;96182.81;5046085;28;20241;-83
2022/07/11 08:45:55;;;;;;;2.42;1.20;;;;;;;22.01;44.77;96172.69;5050908;28;20288;-83
2022/07/11 08:48:24;;;;;;;1.88;1.13;;;;;;;22.13;45.90;96177.09;5055047;28;20275;-83
2022/07/11 08:50:51;;;;;;;3.20;1.10;;;;;;;22.26;44.29;96180.25;5054336;28;20267;-83
2022/07/11 08:53:18;;;;;;;1.40;1.20;;;;;;;22.38;44.95;96178.34;5054449;28;20241;-83
2022/07/11 08:55:44;;;;;;;3.17;1.50;;;;;;;22.21;44.79;96179.34;5054872;28;20259;-83
2022/07/11 08:58:13;;;;;;;1.35;1.13;;;;;;;22.18;45.06;96172.72;5054132;28;20260;-84
2022/07/11 09:00:42;;;;;;;1.88;1.15;;;;;;;22.09;45.79;96174.16;5053355;28;20205;-83
2022/07/11 09:03:15;;;;;;;1.25;0.98;;;;;;;21.94;46.26;96171.97;5057325;28;20244;-83
2022/07/11 09:05:46;;;;;;;1.20;1.05;;;;;;;21.85;46.73;96173.41;5058612;28;20205;-83
2022/07/11 09:08:13;;;;;;;1.42;1.00;;;;;;;21.87;45.91;96171.34;5058817;28;20209;-83
2022/07/11 09:10:40;;;;;;;1.92;0.90;;;;;;;21.85;45.83;96165.53;5057230;28;20225;-83
2022/07/11 09:13:10;;;;;;;1.35;1.10;;;;;;;21.89;46.33;96164.03;5057161;28;20233;-83
2022/07/11 09:15:38;;;;;;;1.17;1.05;;;;;;;21.96;45.52;96171.75;5058682;28;20198;-83
2022/07/11 09:18:07;;;;;;;1.35;1.10;;;;;;;22.03;45.65;96167.22;5057767;28;20209;-83
2022/07/11 09:26:30;;;;;;;1.25;1.00;;;;;;;21.98;45.69;96161.81;5044418;28;20327;-83
2022/07/11 09:29:02;;;;;;;1.77;0.90;;;;;;;22.13;45.37;96172.63;5035816;28;20282;-82
2022/07/11 09:31:29;;;;;;;1.15;0.90;;;;;;;22.23;44.68;96164.97;5034879;28;20591;-82
2022/07/11 09:34:01;;;;;;;1.75;0.98;;;;;;;22.27;44.71;96165.28;5054000;28;20237;-82
2022/07/11 09:36:40;;;;;;;0.82;0.82;;;;;;;22.20;44.84;96173.28;5056003;28;20236;-82
2022/07/11 09:39:08;;;;;;;0.52;0.52;;;;;;;22.17;44.05;96172.97;5056439;28;20198;-82
2022/07/11 09:41:35;;;;;;;0.70;0.70;;;;;;;22.11;44.77;96173.91;5054449;28;20228;-82
2022/07/11 09:44:12;;;;;;;0.80;0.50;;;;;;;22.00;44.61;96170.28;5056094;28;20700;-83
2022/07/11 09:46:39;;;;;;;0.60;0.60;;;;;;;21.99;44.44;96168.66;5056493;28;20592;-83
2022/07/11 09:49:07;;;;;;;1.15;0.60;;;;;;;22.15;44.05;96175.81;5056128;28;20205;-83
2022/07/11 09:51:34;;;;;;;1.45;0.90;;;;;;;22.29;44.75;96168.47;5053581;28;20197;-84
2022/07/11 09:54:09;;;;;;;3.42;0.95;;;;;;;22.58;45.30;96170.03;5052467;28;20229;-85
2022/07/11 09:56:39;;;;;;;0.90;0.57;;;;;;;22.71;43.86;96158.41;5051736;28;20204;-84
2022/07/11 09:59:07;;;;;;;1.05;0.60;;;;;;;22.56;43.65;96155.53;5050957;28;20383;-84
2022/07/11 10:01:33;;;;;;;1.05;0.60;;;;;;;22.50;43.22;96162.56;5049966;28;20202;-84
2022/07/11 10:04:00;;;;;;;2.28;0.68;;;;;;;22.47;43.40;96162.22;5050760;28;20775;-84
2022/07/11 10:06:26;;;;;;;0.60;0.60;;;;;;;22.51;42.71;96161.53;5050601;28;20201;-84
2022/07/11 10:08:54;;;;;;;1.60;0.77;;;;;;;22.45;43.65;96162.47;5050577;28;20201;-84
2022/07/11 10:11:22;;;;;;;0.80;0.77;;;;;;;22.32;43.20;96160.13;5049458;28;20221;-84
2022/07/11 10:13:48;;;;;;;0.88;0.82;;;;;;;22.23;43.86;96169.41;5048853;28;20285;-84
2022/07/11 10:16:25;;;;;;;0.93;0.80;;;;;;;22.18;43.83;96162.25;5050675;28;20197;-84
2022/07/11 10:19:03;;;;;;;0.73;0.70;;;;;;;22.11;44.82;96158.19;5050068;28;20197;-84
2022/07/11 10:21:40;;;;;;;1.42;0.75;;;;;;;22.11;44.22;96164.22;5049036;28;20290;-84
2022/07/11 10:24:19;;;;;;;1.40;0.70;;;;;;;22.11;44.78;96172.09;5048388;28;20319;-84
2022/07/11 10:26:59;;;;;;;0.60;0.60;;;;;;;21.93;44.35;96165.19;5050081;28;20193;-84
2022/07/11 10:29:32;;;;;;;0.60;0.60;;;;;;;21.76;44.73;96166.91;5050069;28;20206;-85
2022/07/11 10:32:06;;;;;;;0.85;0.60;;;;;;;21.55;45.81;96168.31;5049162;28;20201;-84
2022/07/11 10:34:32;;;;;;;0.50;0.50;;;;;;;21.61;45.81;96169.22;5048074;28;20229;-84
2022/07/11 10:37:00;;;;;;;1.05;0.80;;;;;;;21.61;45.33;96172.66;5049799;28;20236;-84
2022/07/11 10:39:27;;;;;;;0.60;0.60;;;;;;;21.57;45.46;96171.50;5049965;28;20197;-84
2022/07/11 10:41:57;;;;;;;0.73;0.73;;;;;;;21.60;45.62;96170.25;5048947;28;20911;-84
2022/07/11 10:44:26;;;;;;;0.70;0.70;;;;;;;21.70;45.10;96163.41;5056821;28;20231;-84
2022/07/11 10:46:52;;;;;;;0.63;0.63;;;;;;;21.80;45.29;96170.66;5069486;28;20209;-84
2022/07/11 10:49:36;;;;;;;1.55;0.60;;;;;;;21.96;44.91;96175.19;5069493;28;20287;-84
2022/07/11 10:52:06;;;;;;;0.60;0.60;;;;;;;22.04;44.40;96177.47;5062573;28;20201;-84
2022/07/11 10:54:48;;;;;;;0.68;0.68;;;;;;;22.19;44.48;96176.16;5049997;28;20620;-85
2022/07/11 10:57:22;;;;;;;2.15;0.77;;;;;;;22.22;44.82;96179.09;5051162;28;20255;-83
2022/07/11 10:59:59;;;;;;;0.65;0.60;;;;;;;22.26;44.77;96174.19;5049505;28;20202;-83
2022/07/11 11:02:27;;;;;;;0.68;0.60;;;;;;;22.33;44.97;96173.00;5051431;28;20282;-83
2022/07/11 11:04:58;;;;;;;0.52;0.52;;;;;;;22.48;43.14;96174.31;5052342;28;20208;-83
2022/07/11 11:07:33;;;;;;;0.77;0.60;;;;;;;22.55;42.85;96173.13;5052445;28;20584;-83
2022/07/11 11:10:01;;;;;;;1.80;0.52;;;;;;;22.58;43.01;96169.22;5051800;28;20271;-84
2022/07/11 11:13:04;;;;;;;0.88;0.60;;;;;;;22.58;42.80;96171.84;5050033;28;20746;-84
2022/07/11 11:15:36;;;;;;;0.43;0.43;;;;;;;22.62;42.76;96167.72;5051382;28;20284;-83
2022/07/11 11:18:38;;;;;;;0.60;0.60;;;;;;;22.58;43.24;96171.84;5052196;28;20213;-83
2022/07/11 11:21:18;;;;;;;0.80;0.70;;;;;;;22.61;42.44;96163.50;5047160;28;20193;-83
2022/07/11 11:24:02;;;;;;;0.50;0.50;;;;;;;22.68;42.79;96166.78;5050102;28;20291;-83
2022/07/11 11:26:44;;;;;;;0.60;0.60;;;;;;;22.83;42.59;96163.63;5051295;28;20229;-84
2022/07/11 11:29:10;;;;;;;0.98;0.85;;;;;;;22.73;42.21;96172.09;5051686;28;20205;-83
2022/07/11 11:31:38;;;;;;;0.60;0.60;;;;;;;22.59;42.65;96169.00;5048930;28;20229;-83
2022/07/11 11:34:05;;;;;;;1.75;0.60;;;;;;;22.53;43.69;96172.56;5049743;28;20241;-83
2022/07/11 11:36:32;;;;;;;1.52;0.77;;;;;;;22.45;44.57;96172.16;5050930;28;20204;-83
2022/07/11 11:38:59;;;;;;;0.63;0.60;;;;;;;22.38;44.47;96180.97;5051257;28;20209;-84
2022/07/11 11:41:27;;;;;;;0.50;0.50;;;;;;;22.29;44.22;96184.22;5049870;28;20202;-84
2022/07/11 11:43:55;;;;;;;0.60;0.60;;;;;;;22.10;44.96;96177.56;5051102;28;20241;-84